Time;durP1;ratioP1;P1;durP2;ratioP2;P2;SDS_P1;SDS_P2;PMS_P1;PMS_P2;Temp;Humidity;BMP_temperature;BMP_pressure;BME280_temperature;BME280_humidity;BME280_pressure;Samples;Min_cycle;Max_cycle;Signal;HPM_P1;HPM_P2
2021/04/26 00:02:15;;;;;;;12.82;2.22;;;4.30;99.90;;;;;;5012506;28;20107;-87
2021/04/26 00:04:44;;;;;;;3.85;1.90;;;4.30;99.90;;;;;;4980466;28;20092;-87
2021/04/26 00:07:10;;;;;;;10.00;2.10;;;4.30;99.90;;;;;;5016225;28;20133;-86
2021/04/26 00:09:39;;;;;;;8.10;2.03;;;4.20;99.90;;;;;;4990905;28;20076;-86
2021/04/26 00:12:06;;;;;;;9.60;1.90;;;4.20;99.90;;;;;;4999681;28;20062;-86
2021/04/26 00:14:34;;;;;;;8.50;1.80;;;4.20;99.90;;;;;;5002644;28;20084;-86
2021/04/26 00:17:01;;;;;;;9.23;2.90;;;4.20;99.90;;;;;;5003780;28;25232;-83
2021/04/26 00:19:27;;;;;;;4.60;1.63;;;4.10;99.90;;;;;;5015271;28;20055;-84
2021/04/26 00:21:57;;;;;;;8.38;2.42;;;4.10;99.90;;;;;;5017715;28;20057;-83
2021/04/26 00:24:23;;;;;;;10.60;1.90;;;4.10;99.90;;;;;;5014247;28;20049;-85
2021/04/26 00:26:50;;;;;;;5.45;2.10;;;4.10;99.90;;;;;;5034882;28;20067;-84
2021/04/26 00:29:18;;;;;;;10.95;1.63;;;4.10;99.90;;;;;;5040489;28;20057;-84
2021/04/26 00:31:45;;;;;;;8.65;2.58;;;4.00;99.90;;;;;;5023888;28;20034;-84
2021/04/26 00:34:11;;;;;;;6.47;1.58;;;4.10;99.90;;;;;;5017175;28;20057;-83
2021/04/26 00:36:38;;;;;;;5.80;2.10;;;4.00;99.90;;;;;;5015777;28;20059;-83
2021/04/26 00:39:05;;;;;;;10.65;2.10;;;4.00;99.90;;;;;;5028062;28;20075;-84
2021/04/26 00:41:31;;;;;;;7.80;2.72;;;4.00;99.90;;;;;;5026720;28;20049;-84
2021/04/26 00:43:57;;;;;;;6.30;2.08;;;4.00;99.90;;;;;;5042272;28;20061;-84
2021/04/26 00:46:24;;;;;;;8.52;1.92;;;3.90;99.90;;;;;;5026778;28;20029;-84
2021/04/26 00:48:50;;;;;;;6.75;1.98;;;3.90;99.90;;;;;;5024741;28;20135;-84
2021/04/26 00:51:17;;;;;;;7.22;2.50;;;3.90;99.90;;;;;;4991694;28;20061;-83
2021/04/26 00:53:43;;;;;;;3.83;1.60;;;3.80;99.90;;;;;;5005978;28;20053;-84
2021/04/26 00:56:10;;;;;;;3.60;1.88;;;3.80;99.90;;;;;;5017859;28;20084;-83
2021/04/26 00:58:36;;;;;;;4.45;1.92;;;3.80;99.90;;;;;;5016481;28;20100;-85
2021/04/26 01:01:07;;;;;;;9.55;2.67;;;3.80;99.90;;;;;;5017015;28;20060;-83
2021/04/26 01:03:35;;;;;;;4.47;2.10;;;3.80;99.90;;;;;;5017332;28;20067;-84
2021/04/26 01:06:01;;;;;;;16.58;2.10;;;3.70;99.90;;;;;;5033656;28;20072;-83
2021/04/26 01:08:27;;;;;;;8.60;2.03;;;3.70;99.90;;;;;;5014201;28;20079;-84
2021/04/26 01:10:54;;;;;;;7.97;1.80;;;3.70;99.90;;;;;;5008916;28;20045;-84
2021/04/26 01:13:40;;;;;;;3.70;1.40;;;3.70;99.90;;;;;;5012354;28;20049;-85
2021/04/26 01:16:31;;;;;;;4.95;1.80;;;3.70;99.90;;;;;;5030571;28;20047;-84
2021/04/26 01:19:16;;;;;;;7.13;1.70;;;3.60;99.90;;;;;;5018947;28;20508;-83
2021/04/26 01:22:04;;;;;;;3.60;1.60;;;3.60;99.90;;;;;;5018395;28;20111;-84
2021/04/26 01:25:06;;;;;;;10.43;2.08;;;3.60;99.90;;;;;;5029209;28;20041;-84
2021/04/26 01:28:05;;;;;;;5.20;1.60;;;3.60;99.90;;;;;;5011896;28;20049;-85
2021/04/26 01:30:48;;;;;;;5.13;1.52;;;3.50;99.90;;;;;;5014000;28;20083;-84
2021/04/26 01:33:21;;;;;;;6.45;2.28;;;3.50;99.90;;;;;;5031741;28;20468;-84
2021/04/26 01:35:49;;;;;;;3.75;1.40;;;3.50;99.90;;;;;;5018494;28;20107;-84
2021/04/26 01:38:31;;;;;;;7.65;2.45;;;3.50;99.90;;;;;;5031557;28;20056;-83
2021/04/26 01:40:59;;;;;;;9.77;2.40;;;3.40;99.90;;;;;;5016235;28;20084;-84
2021/04/26 01:43:28;;;;;;;9.15;1.90;;;3.40;99.90;;;;;;5033101;28;20068;-84
2021/04/26 01:46:00;;;;;;;14.10;1.95;;;3.40;99.90;;;;;;5016977;28;20072;-84
2021/04/26 01:48:29;;;;;;;3.90;1.90;;;3.40;99.90;;;;;;5016714;28;20455;-84
2021/04/26 01:50:58;;;;;;;4.35;1.80;;;3.40;99.90;;;;;;4996046;28;20093;-83
2021/04/26 01:53:26;;;;;;;7.25;1.90;;;3.40;99.90;;;;;;5001604;28;20045;-84
2021/04/26 01:55:58;;;;;;;13.27;1.77;;;3.30;99.90;;;;;;5015775;28;20075;-84
2021/04/26 01:58:26;;;;;;;5.35;1.90;;;3.30;99.90;;;;;;5016809;28;20556;-84
2021/04/26 02:00:53;;;;;;;7.30;2.05;;;3.30;99.90;;;;;;5021749;28;20045;-85
2021/04/26 02:03:22;;;;;;;8.32;2.17;;;3.30;99.90;;;;;;5019757;28;22138;-84
2021/04/26 02:05:54;;;;;;;7.40;2.22;;;3.30;99.90;;;;;;5016285;28;20057;-83
2021/04/26 02:08:22;;;;;;;3.78;1.92;;;3.30;99.90;;;;;;5029994;28;20054;-84
2021/04/26 02:10:48;;;;;;;4.97;1.63;;;3.30;99.90;;;;;;5018337;28;20076;-84
2021/04/26 02:13:21;;;;;;;4.25;2.03;;;3.30;99.90;;;;;;5014156;28;20485;-84
2021/04/26 02:15:51;;;;;;;16.10;3.17;;;3.30;99.90;;;;;;5014938;28;20833;-85
2021/04/26 02:18:17;;;;;;;5.57;1.75;;;3.30;99.90;;;;;;5014135;28;20063;-84
2021/04/26 02:20:44;;;;;;;3.95;1.88;;;3.30;99.90;;;;;;5016592;28;20053;-83
2021/04/26 02:23:11;;;;;;;10.80;1.60;;;3.30;99.90;;;;;;5032360;28;20049;-87
2021/04/26 02:25:38;;;;;;;8.85;2.20;;;3.30;99.90;;;;;;5023887;28;20049;-84
2021/04/26 02:28:05;;;;;;;7.72;1.85;;;3.30;99.90;;;;;;5018805;28;20045;-85
2021/04/26 02:30:32;;;;;;;5.10;2.50;;;3.20;99.90;;;;;;5020413;28;20045;-83
2021/04/26 02:33:11;;;;;;;3.78;1.73;;;3.20;99.90;;;;;;5017459;28;20072;-85
2021/04/26 02:35:48;;;;;;;7.10;2.38;;;3.20;99.90;;;;;;5035066;28;20053;-84
2021/04/26 02:38:24;;;;;;;6.55;1.75;;;3.20;99.90;;;;;;5034088;28;20486;-83
2021/04/26 02:40:55;;;;;;;9.63;2.25;;;3.20;99.90;;;;;;5017447;28;20488;-83
2021/04/26 02:43:23;;;;;;;10.80;2.53;;;3.10;99.90;;;;;;5032402;28;20057;-83
2021/04/26 02:45:56;;;;;;;11.15;2.42;;;3.10;99.90;;;;;;5022087;28;20132;-84
2021/04/26 02:48:23;;;;;;;7.00;2.63;;;3.10;99.90;;;;;;5032020;28;20044;-85
2021/04/26 02:50:58;;;;;;;9.25;2.33;;;3.10;99.90;;;;;;5016629;28;20158;-83
2021/04/26 02:53:29;;;;;;;5.72;1.88;;;3.10;99.90;;;;;;5033724;28;20050;-84
2021/04/26 02:56:16;;;;;;;12.02;2.25;;;3.00;99.90;;;;;;5015800;28;20069;-84
2021/04/26 02:58:46;;;;;;;6.63;2.20;;;3.00;99.90;;;;;;5008748;28;20063;-84
2021/04/26 03:01:14;;;;;;;7.88;2.08;;;3.00;99.90;;;;;;5018871;28;20053;-83
2021/04/26 03:03:42;;;;;;;6.88;2.33;;;2.90;99.90;;;;;;5019359;28;20765;-84
2021/04/26 03:06:11;;;;;;;8.23;2.13;;;2.90;99.90;;;;;;5029190;28;20049;-85
2021/04/26 03:08:39;;;;;;;6.72;2.30;;;2.80;99.90;;;;;;5020233;28;20056;-83
2021/04/26 03:11:15;;;;;;;4.18;2.08;;;2.80;99.90;;;;;;5023584;28;20041;-83
2021/04/26 03:13:43;;;;;;;7.82;2.10;;;2.80;99.90;;;;;;4998995;28;20546;-85
2021/04/26 03:16:11;;;;;;;3.58;2.00;;;2.70;99.90;;;;;;5031850;28;20080;-85
2021/04/26 03:18:39;;;;;;;9.63;2.17;;;2.70;99.90;;;;;;5018378;28;20055;-85
2021/04/26 03:21:10;;;;;;;6.65;2.40;;;2.60;99.90;;;;;;5016224;28;20049;-84
2021/04/26 03:23:38;;;;;;;12.48;2.67;;;2.60;99.90;;;;;;5013102;28;20064;-82
2021/04/26 03:26:06;;;;;;;6.57;2.30;;;2.50;99.90;;;;;;5017550;28;20057;-83
2021/04/26 03:28:34;;;;;;;11.73;2.13;;;2.50;99.90;;;;;;5018318;28;20427;-84
2021/04/26 03:31:03;;;;;;;8.13;2.50;;;2.50;99.90;;;;;;5012549;28;20057;-85
2021/04/26 03:33:32;;;;;;;14.48;2.95;;;2.50;99.90;;;;;;5016954;28;20034;-85
2021/04/26 03:35:58;;;;;;;3.60;2.28;;;2.40;99.90;;;;;;5018034;28;20496;-85
2021/04/26 03:38:26;;;;;;;6.78;2.50;;;2.40;99.90;;;;;;5016295;28;20120;-85
2021/04/26 03:40:54;;;;;;;6.43;2.50;;;2.40;99.90;;;;;;5013130;28;20049;-86
2021/04/26 03:43:21;;;;;;;9.50;3.28;;;2.40;99.90;;;;;;5017401;28;20141;-89
2021/04/26 03:45:49;;;;;;;6.32;2.60;;;2.30;99.90;;;;;;5014645;28;20073;-87
2021/04/26 03:48:15;;;;;;;5.95;2.65;;;2.30;99.90;;;;;;5029938;28;20130;-87
2021/04/26 03:50:42;;;;;;;4.80;2.80;;;2.30;99.90;;;;;;5013318;28;20064;-87
2021/04/26 03:53:08;;;;;;;4.38;2.13;;;2.30;99.90;;;;;;5019965;28;20053;-87
2021/04/26 03:55:35;;;;;;;11.35;2.42;;;2.30;99.90;;;;;;5016412;28;20105;-87
2021/04/26 03:58:01;;;;;;;7.22;2.97;;;2.30;99.90;;;;;;5015775;28;20075;-87
2021/04/26 04:00:28;;;;;;;10.13;3.65;;;2.30;99.90;;;;;;5030471;28;20049;-87
2021/04/26 04:02:54;;;;;;;5.78;2.33;;;2.30;99.90;;;;;;5015907;28;20061;-87
2021/04/26 04:05:21;;;;;;;9.18;2.25;;;2.40;99.90;;;;;;5014270;28;20053;-86
2021/04/26 04:07:47;;;;;;;8.85;2.95;;;2.40;99.90;;;;;;5015836;28;20138;-87
2021/04/26 04:10:15;;;;;;;9.95;2.72;;;2.40;99.90;;;;;;5015952;28;20068;-87
2021/04/26 04:12:42;;;;;;;8.05;2.50;;;2.50;99.90;;;;;;5004943;28;20057;-87
2021/04/26 04:15:10;;;;;;;7.30;2.85;;;2.50;99.90;;;;;;5019451;28;20105;-86
2021/04/26 04:17:38;;;;;;;7.78;2.97;;;2.40;99.90;;;;;;5032321;28;20049;-87
2021/04/26 04:20:06;;;;;;;6.55;2.25;;;2.50;99.90;;;;;;5022338;28;20057;-87
2021/04/26 04:22:33;;;;;;;5.68;2.45;;;2.50;99.90;;;;;;5007805;28;20060;-85
2021/04/26 04:25:00;;;;;;;11.02;2.75;;;2.50;99.90;;;;;;5017134;28;20136;-86
2021/04/26 04:27:26;;;;;;;5.70;2.35;;;2.50;99.90;;;;;;5009179;28;20049;-86
2021/04/26 04:29:53;;;;;;;7.75;2.10;;;2.50;99.90;;;;;;5016712;28;20485;-87
2021/04/26 04:32:19;;;;;;;6.40;2.45;;;2.50;99.90;;;;;;5023433;28;20053;-86
2021/04/26 04:34:45;;;;;;;11.32;2.80;;;2.50;99.90;;;;;;5032273;28;20049;-87
2021/04/26 04:37:12;;;;;;;7.95;2.35;;;2.60;99.90;;;;;;5033940;28;20061;-86
2021/04/26 04:39:38;;;;;;;8.40;2.40;;;2.60;99.90;;;;;;5034075;28;20080;-90
2021/04/26 04:42:05;;;;;;;5.25;2.58;;;2.60;99.90;;;;;;5018380;28;20060;-86
2021/04/26 04:44:31;;;;;;;5.55;2.63;;;2.70;99.90;;;;;;5018795;28;20053;-87
2021/04/26 04:46:58;;;;;;;5.55;2.20;;;2.70;99.90;;;;;;5027196;28;20057;-87
2021/04/26 04:49:24;;;;;;;7.70;3.67;;;2.70;99.90;;;;;;5017615;28;20496;-86
2021/04/26 04:51:51;;;;;;;9.80;2.58;;;2.70;99.90;;;;;;5022669;28;20049;-87
2021/04/26 04:54:17;;;;;;;9.40;2.33;;;2.80;99.90;;;;;;5018885;28;20041;-87
2021/04/26 04:56:44;;;;;;;7.07;1.98;;;2.80;99.90;;;;;;5018069;28;20114;-84
2021/04/26 04:59:10;;;;;;;9.32;3.58;;;2.80;99.90;;;;;;5034203;28;20050;-85
2021/04/26 05:01:37;;;;;;;9.43;3.80;;;2.80;99.90;;;;;;5019013;28;20064;-86
2021/04/26 05:04:04;;;;;;;8.63;3.30;;;2.90;99.90;;;;;;5014516;28;20453;-86
2021/04/26 05:06:30;;;;;;;7.00;2.22;;;2.90;99.90;;;;;;5016219;28;21022;-86
2021/04/26 05:08:56;;;;;;;4.28;2.38;;;2.90;99.90;;;;;;5017701;28;20062;-87
2021/04/26 05:11:22;;;;;;;9.43;3.05;;;3.00;99.90;;;;;;5018463;28;20076;-87
2021/04/26 05:13:49;;;;;;;7.43;2.20;;;3.00;99.90;;;;;;5013706;28;20050;-86
2021/04/26 05:16:16;;;;;;;8.25;2.63;;;3.10;99.90;;;;;;5018890;28;20080;-86
2021/04/26 05:18:42;;;;;;;7.65;2.83;;;3.10;99.90;;;;;;5019642;28;20117;-86
2021/04/26 05:21:09;;;;;;;5.70;2.90;;;3.20;99.90;;;;;;5034492;28;20113;-87
2021/04/26 05:23:35;;;;;;;7.00;2.42;;;3.20;99.90;;;;;;5018721;28;20488;-87
2021/04/26 05:26:01;;;;;;;6.68;2.63;;;3.30;99.90;;;;;;5020213;28;20095;-87
2021/04/26 05:28:28;;;;;;;7.38;2.40;;;3.40;99.90;;;;;;5019574;28;20049;-85
2021/04/26 05:30:54;;;;;;;4.50;2.28;;;3.40;99.90;;;;;;5017982;28;20132;-87
2021/04/26 05:33:20;;;;;;;7.88;2.22;;;3.50;99.90;;;;;;5018915;28;20045;-88
2021/04/26 05:35:47;;;;;;;7.88;2.15;;;3.60;99.90;;;;;;5019833;28;20041;-87
2021/04/26 05:38:15;;;;;;;5.38;2.13;;;3.70;99.90;;;;;;5021198;28;20075;-87
2021/04/26 05:40:41;;;;;;;9.25;2.83;;;3.80;99.90;;;;;;5019432;28;20052;-86
2021/04/26 05:43:08;;;;;;;5.35;1.80;;;4.00;99.90;;;;;;5021409;28;20060;-88
2021/04/26 05:45:35;;;;;;;4.97;1.80;;;4.30;99.90;;;;;;5006552;28;20128;-88
2021/04/26 05:48:02;;;;;;;6.05;1.73;;;4.70;99.90;;;;;;5032501;28;22351;-87
2021/04/26 05:50:32;;;;;;;3.33;1.35;;;5.00;99.90;;;;;;5019268;28;20046;-86
2021/04/26 05:52:59;;;;;;;9.18;2.13;;;5.30;99.90;;;;;;5019261;28;20072;-87
2021/04/26 05:55:26;;;;;;;6.30;1.80;;;5.50;99.90;;;;;;5016418;28;20061;-87
2021/04/26 05:57:52;;;;;;;3.15;1.92;;;5.60;99.90;;;;;;5019030;28;20131;-86
2021/04/26 06:00:22;;;;;;;10.70;2.22;;;5.60;99.90;;;;;;5032264;28;21292;-85
2021/04/26 06:02:48;;;;;;;9.30;2.00;;;5.70;99.90;;;;;;5016695;28;20079;-86
2021/04/26 06:05:15;;;;;;;3.72;1.50;;;5.70;99.90;;;;;;5032009;28;20088;-88
2021/04/26 06:07:41;;;;;;;4.95;1.48;;;5.70;99.90;;;;;;5020018;28;20100;-87
2021/04/26 06:10:08;;;;;;;5.28;1.80;;;5.80;99.90;;;;;;5018325;28;20464;-86
2021/04/26 06:12:35;;;;;;;9.02;1.67;;;5.80;99.90;;;;;;5031267;28;20488;-86
2021/04/26 06:15:02;;;;;;;3.50;1.33;;;5.90;99.90;;;;;;5011790;28;20208;-86
2021/04/26 06:17:31;;;;;;;10.00;1.63;;;6.00;99.90;;;;;;5014453;28;20061;-88
2021/04/26 06:19:57;;;;;;;3.55;1.38;;;6.00;99.90;;;;;;5017926;28;20064;-88
2021/04/26 06:22:24;;;;;;;3.40;1.58;;;6.10;99.90;;;;;;5015230;28;20122;-88
2021/04/26 06:24:50;;;;;;;7.10;1.40;;;6.20;99.90;;;;;;5015500;28;20401;-87
2021/04/26 06:27:16;;;;;;;5.07;1.55;;;6.30;99.90;;;;;;5018437;28;20044;-87
2021/04/26 06:29:43;;;;;;;7.47;1.30;;;6.50;99.90;;;;;;5015725;28;20443;-88
2021/04/26 06:32:10;;;;;;;4.32;1.48;;;6.60;99.90;;;;;;5020743;28;20113;-86
2021/04/26 06:34:37;;;;;;;4.95;1.58;;;6.70;99.90;;;;;;5029970;28;20063;-89
2021/04/26 06:37:07;;;;;;;3.13;1.20;;;6.90;99.90;;;;;;5016614;28;20049;-87
2021/04/26 06:39:33;;;;;;;3.67;1.88;;;7.00;99.90;;;;;;5016643;28;20128;-86
2021/04/26 06:42:00;;;;;;;9.18;1.30;;;7.20;99.90;;;;;;5018151;28;20053;-86
2021/04/26 06:44:27;;;;;;;6.65;1.50;;;7.30;99.90;;;;;;5031618;28;20099;-87
2021/04/26 06:46:54;;;;;;;3.00;1.00;;;7.30;99.90;;;;;;5021392;28;20068;-87
2021/04/26 06:49:20;;;;;;;2.65;1.40;;;7.40;99.90;;;;;;5012459;28;20050;-87
2021/04/26 06:51:47;;;;;;;4.53;0.88;;;7.40;99.90;;;;;;5016563;28;20053;-86
2021/04/26 06:54:14;;;;;;;6.13;1.88;;;7.50;99.90;;;;;;5018667;28;20057;-87
2021/04/26 06:56:41;;;;;;;4.53;1.40;;;7.60;99.90;;;;;;5016133;28;20120;-87
2021/04/26 06:59:08;;;;;;;4.32;1.27;;;7.60;99.90;;;;;;5008019;28;20572;-86
2021/04/26 07:01:35;;;;;;;4.07;1.05;;;7.70;99.90;;;;;;5016079;28;20053;-87
2021/04/26 07:04:01;;;;;;;5.75;1.55;;;7.80;99.90;;;;;;5013461;28;20045;-87
2021/04/26 07:06:28;;;;;;;2.10;0.90;;;7.80;99.90;;;;;;5003069;28;20053;-86
2021/04/26 07:08:54;;;;;;;3.55;1.10;;;7.90;99.90;;;;;;5016162;28;20053;-87
2021/04/26 07:11:20;;;;;;;6.85;1.45;;;8.00;99.90;;;;;;5014150;28;20045;-87
2021/04/26 07:13:47;;;;;;;6.97;1.17;;;8.10;99.90;;;;;;5011647;28;20106;-87
2021/04/26 07:16:13;;;;;;;2.55;1.45;;;8.20;99.90;;;;;;5015177;28;20045;-86
2021/04/26 07:18:40;;;;;;;6.28;1.23;;;8.40;99.90;;;;;;5014986;28;20057;-86
2021/04/26 07:21:10;;;;;;;7.55;1.98;;;8.40;99.90;;;;;;5014598;28;20052;-85
2021/04/26 07:23:43;;;;;;;5.22;2.00;;;8.50;99.90;;;;;;5013592;28;20060;-86
2021/04/26 07:26:09;;;;;;;6.43;1.63;;;8.60;99.90;;;;;;5016500;28;20053;-88
2021/04/26 07:28:37;;;;;;;11.43;2.53;;;8.70;99.90;;;;;;5011015;28;20069;-87
2021/04/26 07:31:03;;;;;;;6.82;1.42;;;8.80;99.90;;;;;;5006884;28;20084;-89
2021/04/26 07:33:29;;;;;;;5.15;1.25;;;8.90;99.90;;;;;;5029658;28;20402;-87
2021/04/26 07:35:56;;;;;;;5.50;1.15;;;8.90;99.90;;;;;;5025171;28;20049;-88
2021/04/26 07:38:22;;;;;;;5.13;0.73;;;8.90;99.90;;;;;;5003534;28;20079;-87
2021/04/26 07:40:48;;;;;;;8.38;1.05;;;9.00;99.90;;;;;;5007801;28;20045;-87
2021/04/26 07:43:15;;;;;;;2.55;1.00;;;8.90;99.90;;;;;;5015232;28;20212;-87
2021/04/26 07:45:41;;;;;;;2.50;0.90;;;9.00;99.90;;;;;;5030063;28;20056;-88
2021/04/26 07:48:08;;;;;;;1.95;0.93;;;9.00;99.90;;;;;;5016572;28;20097;-89
2021/04/26 07:50:36;;;;;;;4.50;1.15;;;9.20;99.90;;;;;;5009895;28;20053;-88
2021/04/26 07:53:02;;;;;;;3.67;1.30;;;9.30;99.90;;;;;;5020692;28;20128;-88
2021/04/26 07:55:29;;;;;;;5.63;1.10;;;9.50;99.90;;;;;;5017781;28;20036;-87
2021/04/26 07:57:58;;;;;;;2.42;0.82;;;9.50;99.90;;;;;;5014539;28;20049;-88
2021/04/26 08:00:27;;;;;;;3.65;0.90;;;9.60;98.50;;;;;;5015742;28;20057;-89
2021/04/26 08:02:55;;;;;;;6.97;1.23;;;9.70;97.50;;;;;;5027828;28;20056;-88
2021/04/26 08:05:22;;;;;;;5.30;1.30;;;9.70;98.80;;;;;;5000524;28;20118;-87
2021/04/26 08:07:52;;;;;;;4.93;1.05;;;9.80;98.20;;;;;;5005679;28;20068;-88
2021/04/26 08:10:18;;;;;;;5.35;1.17;;;9.80;98.30;;;;;;4993236;28;20149;-86
2021/04/26 08:12:45;;;;;;;3.40;1.45;;;9.90;97.00;;;;;;5027915;28;20045;-88
2021/04/26 08:15:11;;;;;;;3.40;1.50;;;10.10;95.60;;;;;;5003255;28;20103;-88
2021/04/26 08:17:38;;;;;;;5.47;1.63;;;10.10;96.30;;;;;;5013371;28;20057;-86
2021/04/26 08:20:07;;;;;;;8.38;2.38;;;10.30;96.10;;;;;;5009708;28;20088;-88
2021/04/26 08:22:33;;;;;;;9.48;2.78;;;10.40;95.20;;;;;;5025455;28;20045;-88
2021/04/26 08:25:05;;;;;;;6.82;1.95;;;10.50;94.30;;;;;;5017004;28;20077;-88
2021/04/26 08:27:31;;;;;;;7.97;1.60;;;10.60;93.40;;;;;;4999212;28;20049;-88
2021/04/26 08:29:57;;;;;;;7.35;1.80;;;10.70;91.70;;;;;;5014803;28;20067;-89
2021/04/26 08:32:26;;;;;;;4.57;1.88;;;10.70;91.40;;;;;;5026212;28;20420;-88
2021/04/26 08:34:53;;;;;;;5.22;1.30;;;10.80;90.90;;;;;;5010141;28;20142;-88
2021/04/26 08:37:20;;;;;;;2.35;1.15;;;10.90;86.10;;;;;;5002976;28;20069;-89
2021/04/26 08:39:47;;;;;;;6.00;1.80;;;11.00;83.20;;;;;;5016052;28;20053;-87
2021/04/26 08:42:18;;;;;;;5.25;1.33;;;11.20;83.60;;;;;;5013811;28;20033;-87
2021/04/26 08:44:44;;;;;;;2.60;1.23;;;11.30;80.30;;;;;;5009632;28;20171;-87
2021/04/26 08:47:11;;;;;;;4.88;1.15;;;11.40;77.00;;;;;;5015914;28;20480;-89
2021/04/26 08:49:38;;;;;;;4.65;0.98;;;11.40;76.70;;;;;;5006135;28;20073;-88
2021/04/26 08:52:07;;;;;;;4.80;0.98;;;11.40;75.40;;;;;;5012072;28;20045;-90
2021/04/26 08:54:33;;;;;;;4.57;0.85;;;11.50;74.00;;;;;;5030110;28;20109;-87
2021/04/26 08:57:00;;;;;;;4.00;1.10;;;11.60;73.10;;;;;;5015634;28;20053;-87
2021/04/26 08:59:26;;;;;;;5.72;0.98;;;11.50;69.00;;;;;;4999624;28;20488;-89
2021/04/26 09:02:19;;;;;;;4.40;1.20;;;11.50;67.80;;;;;;5014152;28;20060;-88
2021/04/26 09:04:52;;;;;;;5.05;1.17;;;11.60;67.70;;;;;;5005543;28;20136;-88
2021/04/26 09:07:19;;;;;;;1.23;0.95;;;11.70;68.20;;;;;;5005224;28;20049;-88
2021/04/26 09:09:47;;;;;;;4.15;1.02;;;11.70;70.00;;;;;;5016463;28;20045;-88
2021/04/26 09:12:27;;;;;;;3.03;1.05;;;11.90;69.20;;;;;;5004367;28;20063;-88
2021/04/26 09:15:03;;;;;;;4.35;0.95;;;12.00;69.50;;;;;;4963638;28;20065;-87
2021/04/26 09:17:38;;;;;;;3.70;0.70;;;12.10;69.30;;;;;;4995054;23;20051;-87
2021/04/26 09:20:17;;;;;;;5.80;1.00;;;12.30;66.90;;;;;;5025489;28;20052;-87
2021/04/26 09:22:58;;;;;;;2.13;0.90;;;12.40;67.90;;;;;;5029983;28;20119;-88
2021/04/26 09:25:35;;;;;;;3.65;1.10;;;12.60;67.10;;;;;;5032197;28;20068;-87
2021/04/26 09:28:03;;;;;;;4.03;1.20;;;12.70;66.50;;;;;;5020213;28;20133;-89
2021/04/26 09:30:54;;;;;;;4.38;1.30;;;12.80;63.30;;;;;;5017517;28;20054;-87
2021/04/26 09:33:32;;;;;;;3.28;0.90;;;12.70;65.50;;;;;;5036844;28;20079;-87
2021/04/26 09:36:14;;;;;;;3.90;1.10;;;12.80;65.70;;;;;;5042619;28;20049;-88
2021/04/26 09:38:43;;;;;;;5.35;1.13;;;13.00;64.20;;;;;;5044359;28;20060;-88
2021/04/26 09:41:19;;;;;;;3.78;0.70;;;13.10;61.10;;;;;;5046008;28;20049;-88
2021/04/26 09:44:08;;;;;;;6.03;1.25;;;13.10;63.20;;;;;;5044464;28;20196;-87
2021/04/26 09:46:50;;;;;;;3.67;1.08;;;13.10;60.80;;;;;;5052365;28;20040;-88
2021/04/26 09:49:27;;;;;;;7.20;1.23;;;13.10;58.50;;;;;;5029527;28;20052;-87
2021/04/26 09:51:56;;;;;;;3.15;1.10;;;13.10;58.50;;;;;;5027816;28;20055;-88
2021/04/26 09:54:37;;;;;;;3.55;0.82;;;13.10;59.00;;;;;;5034457;28;20080;-88
2021/04/26 09:57:04;;;;;;;4.25;1.10;;;13.10;59.40;;;;;;5048090;28;20144;-88
2021/04/26 09:59:31;;;;;;;1.85;0.80;;;13.20;57.60;;;;;;5032884;28;20066;-88
2021/04/26 10:02:00;;;;;;;2.50;1.02;;;13.30;55.10;;;;;;5019067;28;20466;-87
2021/04/26 10:04:30;;;;;;;4.63;0.82;;;13.40;55.70;;;;;;5040358;28;20057;-89
2021/04/26 10:06:57;;;;;;;2.97;0.98;;;13.40;54.60;;;;;;5029223;28;20346;-88
2021/04/26 10:09:26;;;;;;;4.43;1.23;;;13.50;55.50;;;;;;5025062;28;20485;-88
2021/04/26 10:11:53;;;;;;;4.57;1.02;;;13.70;54.10;;;;;;5035979;28;21482;-87
2021/04/26 10:14:21;;;;;;;1.70;0.70;;;13.80;52.40;;;;;;5031717;28;20049;-88
2021/04/26 10:17:05;;;;;;;3.50;1.00;;;13.80;53.70;;;;;;5043812;28;20067;-87
2021/04/26 10:19:47;;;;;;;1.83;0.75;;;13.90;52.30;;;;;;5047801;28;20072;-88
2021/04/26 10:22:32;;;;;;;6.40;0.90;;;13.80;53.60;;;;;;5025391;28;20427;-88
2021/04/26 10:25:00;;;;;;;5.10;1.23;;;14.00;51.80;;;;;;5044007;28;20280;-88
2021/04/26 10:27:37;;;;;;;1.50;0.73;;;14.00;51.70;;;;;;5035555;28;20423;-88
2021/04/26 10:30:10;;;;;;;2.20;1.42;;;14.10;52.00;;;;;;5041677;28;20045;-88
2021/04/26 10:33:04;;;;;;;2.33;1.15;;;14.20;53.10;;;;;;5014842;28;20551;-87
2021/04/26 10:35:50;;;;;;;1.70;0.93;;;14.30;49.10;;;;;;5029832;28;20045;-91
2021/04/26 10:38:37;;;;;;;4.03;0.85;;;14.10;49.20;;;;;;5034674;28;20045;-87
2021/04/26 10:41:05;;;;;;;2.63;0.70;;;14.00;51.60;;;;;;5021008;28;20057;-87
2021/04/26 10:43:33;;;;;;;3.58;0.90;;;14.10;52.00;;;;;;5031357;28;20882;-88
2021/04/26 10:46:15;;;;;;;1.50;0.85;;;14.20;48.50;;;;;;5029381;28;20512;-88
2021/04/26 10:49:07;;;;;;;3.47;0.68;;;14.40;49.00;;;;;;5048953;28;20093;-88
2021/04/26 10:51:37;;;;;;;3.78;0.90;;;14.60;48.70;;;;;;5026011;28;20057;-87
2021/04/26 10:54:05;;;;;;;1.67;0.73;;;14.60;47.90;;;;;;5031369;28;20049;-87
2021/04/26 10:56:34;;;;;;;2.42;0.90;;;14.60;48.30;;;;;;5027552;28;20045;-86
2021/04/26 10:59:16;;;;;;;2.38;0.70;;;14.50;46.50;;;;;;5041564;28;20060;-88
2021/04/26 11:01:45;;;;;;;2.28;0.88;;;14.50;47.60;;;;;;5029570;28;20117;-87
2021/04/26 11:04:12;;;;;;;5.25;0.90;;;14.70;46.70;;;;;;5044752;28;20488;-86
2021/04/26 11:06:39;;;;;;;1.90;0.95;;;14.90;48.30;;;;;;5046216;28;20044;-90
2021/04/26 11:09:36;;;;;;;4.28;1.50;;;15.10;48.00;;;;;;5015883;28;20049;-88
2021/04/26 11:12:23;;;;;;;3.08;0.93;;;15.30;48.30;;;;;;5026724;28;20045;-88
2021/04/26 11:14:50;;;;;;;2.05;0.90;;;15.60;50.30;;;;;;5026443;28;20388;-89
2021/04/26 11:17:25;;;;;;;3.15;0.80;;;15.70;46.90;;;;;;5027794;28;20104;-87
2021/04/26 11:20:23;;;;;;;5.85;1.10;;;15.70;48.10;;;;;;5034864;28;20136;-86
2021/04/26 11:22:56;;;;;;;2.35;1.15;;;15.80;46.40;;;;;;5008737;28;20044;-87
2021/04/26 11:25:39;;;;;;;2.47;0.82;;;15.90;46.80;;;;;;5026113;28;20054;-87
2021/04/26 11:28:09;;;;;;;5.30;1.45;;;16.00;46.10;;;;;;5030766;28;20057;-87
2021/04/26 11:30:36;;;;;;;4.95;1.42;;;16.00;45.30;;;;;;5045223;28;20540;-87
2021/04/26 11:33:06;;;;;;;4.78;0.80;;;16.10;45.20;;;;;;5028088;28;20055;-86
2021/04/26 11:35:34;;;;;;;3.22;0.90;;;16.00;45.50;;;;;;5026958;28;20095;-87
2021/04/26 11:38:01;;;;;;;2.35;1.20;;;16.00;44.60;;;;;;5028218;28;20444;-88
2021/04/26 11:40:30;;;;;;;3.88;1.17;;;16.10;46.50;;;;;;5039326;28;20103;-88
2021/04/26 11:43:08;;;;;;;3.05;0.80;;;16.40;43.50;;;;;;5032333;28;20061;-87
2021/04/26 11:45:36;;;;;;;3.40;0.70;;;16.50;44.80;;;;;;5029855;28;20052;-87
2021/04/26 11:48:03;;;;;;;3.58;1.08;;;16.60;45.10;;;;;;5029773;28;20060;-87
2021/04/26 11:50:30;;;;;;;2.08;1.02;;;16.80;44.70;;;;;;5047126;28;20048;-86
2021/04/26 11:52:56;;;;;;;2.17;1.00;;;16.90;43.70;;;;;;5031375;28;20091;-87
2021/04/26 11:55:27;;;;;;;3.25;1.00;;;16.90;45.40;;;;;;5035259;28;20131;-86
2021/04/26 11:57:56;;;;;;;1.77;1.02;;;17.20;44.90;;;;;;5024881;28;20049;-88
2021/04/26 12:00:28;;;;;;;1.85;1.10;;;17.50;43.20;;;;;;5041415;28;20053;-88
2021/04/26 12:03:09;;;;;;;3.53;1.60;;;17.70;41.70;;;;;;5045351;28;20049;-88
2021/04/26 12:05:36;;;;;;;4.95;1.52;;;18.00;41.30;;;;;;5027727;28;20351;-86
2021/04/26 12:08:03;;;;;;;2.95;1.17;;;18.30;41.90;;;;;;5023099;28;20044;-87
2021/04/26 12:10:31;;;;;;;1.73;0.90;;;18.70;42.40;;;;;;5046290;28;20052;-88
2021/04/26 12:13:04;;;;;;;2.15;1.00;;;19.30;39.80;;;;;;5023679;28;20387;-88
2021/04/26 12:15:32;;;;;;;3.33;1.20;;;19.80;41.80;;;;;;5039340;28;20060;-88
2021/04/26 12:18:00;;;;;;;1.92;0.80;;;20.10;36.80;;;;;;5043232;28;20459;-88
2021/04/26 12:20:29;;;;;;;3.03;0.85;;;20.20;39.30;;;;;;5037842;28;20444;-88
2021/04/26 12:23:14;;;;;;;1.70;0.93;;;20.40;39.30;;;;;;5020252;28;20126;-88
2021/04/26 12:25:42;;;;;;;3.08;1.17;;;20.90;35.30;;;;;;5023249;28;20052;-88
2021/04/26 12:28:14;;;;;;;2.60;0.90;;;21.30;36.40;;;;;;5045222;28;20056;-87
2021/04/26 12:30:46;;;;;;;1.00;0.90;;;22.00;37.80;;;;;;5036155;28;20049;-87
2021/04/26 12:33:29;;;;;;;2.10;1.10;;;22.80;32.40;;;;;;5022556;28;20057;-87
2021/04/26 12:35:55;;;;;;;1.75;0.90;;;23.00;32.20;;;;;;5047620;28;20460;-87
2021/04/26 12:38:26;;;;;;;6.05;1.35;;;23.10;33.60;;;;;;5044592;28;20099;-87
2021/04/26 12:40:54;;;;;;;4.95;1.30;;;23.40;32.70;;;;;;5038099;28;20080;-86
2021/04/26 12:43:20;;;;;;;4.20;1.55;;;23.60;34.70;;;;;;5025336;28;20072;-88
2021/04/26 12:45:48;;;;;;;3.92;1.27;;;24.00;34.80;;;;;;5037423;28;20389;-88
2021/04/26 12:48:19;;;;;;;3.17;1.00;;;24.30;33.20;;;;;;5024740;28;20049;-88
2021/04/26 12:50:51;;;;;;;2.85;1.30;;;24.70;33.30;;;;;;5031939;28;20445;-87
2021/04/26 12:53:32;;;;;;;1.45;1.02;;;24.90;32.90;;;;;;5027645;28;20038;-86
2021/04/26 12:55:59;;;;;;;5.65;1.50;;;25.10;30.50;;;;;;5042849;28;20514;-87
2021/04/26 12:58:27;;;;;;;4.70;1.30;;;25.40;32.90;;;;;;5027838;28;20446;-87
2021/04/26 13:00:57;;;;;;;3.58;1.20;;;25.80;34.50;;;;;;5026555;28;20057;-87
2021/04/26 13:03:23;;;;;;;5.03;1.58;;;26.30;34.10;;;;;;5039289;28;20550;-88
2021/04/26 13:05:58;;;;;;;4.93;1.45;;;27.00;29.30;;;;;;5047967;28;20045;-88
2021/04/26 13:08:25;;;;;;;4.13;1.20;;;26.60;29.90;;;;;;5022028;28;20059;-87